Arvada, CO (80003)

7:03 PM MST on February 08, 2016 (GMT -0700)
Gold Ridge | | Change Station
CLOSE
Current Station
Personal Weather Station
Location: Arvada, CO
Elevation: 5440 ft
Nearby Weather Stations

Elev 5440 ft 39.83 °N, 105.07 °W | Updated 1 second ago

Partly Cloudy
Partly Cloudy
41.0 °F
Feels Like 41 °F
N
0.9
Wind Variable Wind from East
Gusts 2.5 mph

Today
High -- | Low -- °F
--% Chance of Precip.
Yesterday
High -- | Low -- °F
Precip. -- in
Pressure 30.33 in
Visibility 40.0 miles
Clouds Few 5000 ft
Scattered Clouds 20000 ft
Mostly Cloudy 25000 ft
Windchill 41 °F
Dew Point 24 °F
Humidity 51%
Rainfall 0.00 in
Snow Depth Not available.
7:01 AM 5:27 PM
New Moon, 0% visible
METAR KBJC 090146Z 18004KT 40SM FEW050 SCT200 BKN250 03/M04 A3033
Pressure 30.33 in
Visibility 40.0 miles
Clouds Few 5000 ft
Scattered Clouds 20000 ft
Mostly Cloudy 25000 ft
Windchill 41 °F
Dew Point 24 °F
Humidity 51%
Rainfall 0.00 in
Snow Depth Not available.
7:01 AM 5:27 PM
New Moon, 0% visible
METAR KBJC 090146Z 18004KT 40SM FEW050 SCT200 BKN250 03/M04 A3033

10-Day Weather Forecast

Almanac

Astronomy

Feb. 08, 2016 Rise Set
Actual Time
Civil Twilight
Nautical Twilight
Astronomical Twilight
Moon
Length of Visible Light
Length of Day
Tomorrow will be .
, % of the Moon is Illuminated

Today's Extremes

State Highs State Lows

Community

WunderPhotos

Upload Photos

1,891,527 photos uploaded!

WunderBlog® & News

Nearby

Air Quality

  Air Quality AQ Index Pollutant
Not available.

Snow Depth

Station Depth Elevation

Earthquake Activity

City Distance Mag. Time & Date
Minimum magnitude displayed is 2.5.

Coastal Water Temperatures

Place Temperature

Stations

Nearby Weather Stations

Station Location Temp. Windchill Dew Point Humidity Wind Precip. Elev Updated Type
                   

Watches & Warnings

There are currently no watches in effect.